sensor_id;sensor_type;location;lat;lon;timestamp;P1;durP1;ratioP1;P2;durP2;ratioP2
69417;SDS011;56610;48.872;2.400;2022-12-22T00:02:30;6.20;;;1.58;;
69417;SDS011;56610;48.872;2.400;2022-12-22T00:05:15;6.15;;;2.00;;
69417;SDS011;56610;48.872;2.400;2022-12-22T00:08:00;5.97;;;2.00;;
69417;SDS011;56610;48.872;2.400;2022-12-22T00:10:44;8.55;;;2.65;;
69417;SDS011;56610;48.872;2.400;2022-12-22T00:13:29;5.43;;;1.90;;
69417;SDS011;56610;48.872;2.400;2022-12-22T00:16:14;8.27;;;1.95;;
69417;SDS011;56610;48.872;2.400;2022-12-22T00:18:58;6.50;;;2.00;;
69417;SDS011;56610;48.872;2.400;2022-12-22T00:21:42;6.88;;;2.40;;
69417;SDS011;56610;48.872;2.400;2022-12-22T00:24:26;6.70;;;2.05;;
69417;SDS011;56610;48.872;2.400;2022-12-22T00:27:14;8.88;;;2.00;;
69417;SDS011;56610;48.872;2.400;2022-12-22T00:30:01;8.27;;;2.17;;
69417;SDS011;56610;48.872;2.400;2022-12-22T00:32:46;7.35;;;2.30;;
69417;SDS011;56610;48.872;2.400;2022-12-22T00:35:31;9.70;;;2.10;;
69417;SDS011;56610;48.872;2.400;2022-12-22T00:38:16;11.88;;;3.22;;
69417;SDS011;56610;48.872;2.400;2022-12-22T00:41:02;13.45;;;3.45;;
69417;SDS011;56610;48.872;2.400;2022-12-22T00:43:47;10.32;;;2.72;;
69417;SDS011;56610;48.872;2.400;2022-12-22T00:46:31;11.27;;;2.78;;
69417;SDS011;56610;48.872;2.400;2022-12-22T00:49:17;11.27;;;3.03;;
69417;SDS011;56610;48.872;2.400;2022-12-22T00:52:02;11.85;;;2.92;;
69417;SDS011;56610;48.872;2.400;2022-12-22T00:54:46;10.68;;;2.42;;
69417;SDS011;56610;48.872;2.400;2022-12-22T00:57:30;12.55;;;3.42;;
69417;SDS011;56610;48.872;2.400;2022-12-22T01:00:16;12.50;;;2.88;;
69417;SDS011;56610;48.872;2.400;2022-12-22T01:03:01;12.43;;;3.33;;
69417;SDS011;56610;48.872;2.400;2022-12-22T01:05:47;9.13;;;2.50;;
69417;SDS011;56610;48.872;2.400;2022-12-22T01:08:32;11.75;;;2.78;;
69417;SDS011;56610;48.872;2.400;2022-12-22T01:11:19;9.40;;;2.45;;
69417;SDS011;56610;48.872;2.400;2022-12-22T01:14:04;9.02;;;2.50;;
69417;SDS011;56610;48.872;2.400;2022-12-22T01:16:52;9.40;;;2.50;;
69417;SDS011;56610;48.872;2.400;2022-12-22T01:19:37;9.20;;;2.90;;
69417;SDS011;56610;48.872;2.400;2022-12-22T01:22:21;8.90;;;2.20;;
69417;SDS011;56610;48.872;2.400;2022-12-22T01:25:09;11.98;;;2.65;;
69417;SDS011;56610;48.872;2.400;2022-12-22T01:27:55;8.63;;;2.50;;
69417;SDS011;56610;48.872;2.400;2022-12-22T01:30:39;8.00;;;2.53;;
69417;SDS011;56610;48.872;2.400;2022-12-22T01:33:25;9.25;;;2.40;;
69417;SDS011;56610;48.872;2.400;2022-12-22T01:36:09;7.60;;;2.03;;
69417;SDS011;56610;48.872;2.400;2022-12-22T01:38:53;7.93;;;2.08;;
69417;SDS011;56610;48.872;2.400;2022-12-22T01:41:37;6.82;;;2.08;;
69417;SDS011;56610;48.872;2.400;2022-12-22T01:44:22;9.20;;;2.30;;
69417;SDS011;56610;48.872;2.400;2022-12-22T01:50:31;9.13;;;2.22;;
69417;SDS011;56610;48.872;2.400;2022-12-22T01:53:19;7.40;;;2.25;;
69417;SDS011;56610;48.872;2.400;2022-12-22T01:56:06;8.75;;;2.20;;
69417;SDS011;56610;48.872;2.400;2022-12-22T01:58:51;6.80;;;2.20;;
69417;SDS011;56610;48.872;2.400;2022-12-22T02:04:23;5.97;;;1.80;;
69417;SDS011;56610;48.872;2.400;2022-12-22T02:07:21;7.88;;;2.33;;
69417;SDS011;56610;48.872;2.400;2022-12-22T02:10:33;7.97;;;2.50;;
69417;SDS011;56610;48.872;2.400;2022-12-22T02:13:36;8.55;;;2.00;;
69417;SDS011;56610;48.872;2.400;2022-12-22T02:25:27;11.40;;;3.05;;
69417;SDS011;56610;48.872;2.400;2022-12-22T02:28:18;12.73;;;2.72;;
69417;SDS011;56610;48.872;2.400;2022-12-22T02:31:04;11.85;;;3.28;;
69417;SDS011;56610;48.872;2.400;2022-12-22T02:33:49;11.95;;;3.00;;
69417;SDS011;56610;48.872;2.400;2022-12-22T02:36:46;16.48;;;3.25;;
69417;SDS011;56610;48.872;2.400;2022-12-22T02:40:06;12.75;;;3.53;;
69417;SDS011;56610;48.872;2.400;2022-12-22T02:46:26;13.27;;;3.42;;
69417;SDS011;56610;48.872;2.400;2022-12-22T02:49:19;11.75;;;3.20;;
69417;SDS011;56610;48.872;2.400;2022-12-22T02:52:14;17.10;;;3.88;;
69417;SDS011;56610;48.872;2.400;2022-12-22T02:55:04;13.10;;;3.38;;
69417;SDS011;56610;48.872;2.400;2022-12-22T02:57:50;17.50;;;4.05;;
69417;SDS011;56610;48.872;2.400;2022-12-22T03:00:35;19.00;;;4.75;;
69417;SDS011;56610;48.872;2.400;2022-12-22T03:03:20;11.73;;;3.55;;
69417;SDS011;56610;48.872;2.400;2022-12-22T03:06:04;14.65;;;3.80;;
69417;SDS011;56610;48.872;2.400;2022-12-22T03:08:48;14.23;;;3.45;;
69417;SDS011;56610;48.872;2.400;2022-12-22T03:11:33;16.05;;;3.70;;
69417;SDS011;56610;48.872;2.400;2022-12-22T03:14:17;15.02;;;3.90;;
69417;SDS011;56610;48.872;2.400;2022-12-22T03:17:01;13.30;;;4.07;;
69417;SDS011;56610;48.872;2.400;2022-12-22T03:19:45;15.45;;;5.50;;
69417;SDS011;56610;48.872;2.400;2022-12-22T03:22:29;13.25;;;4.90;;
69417;SDS011;56610;48.872;2.400;2022-12-22T03:25:13;13.73;;;4.25;;
69417;SDS011;56610;48.872;2.400;2022-12-22T03:28:01;20.88;;;9.75;;
69417;SDS011;56610;48.872;2.400;2022-12-22T03:30:27;21.02;;;6.53;;
69417;SDS011;56610;48.872;2.400;2022-12-22T03:32:53;21.33;;;10.63;;
69417;SDS011;56610;48.872;2.400;2022-12-22T03:35:18;19.05;;;7.05;;
69417;SDS011;56610;48.872;2.400;2022-12-22T03:37:44;14.95;;;5.97;;
69417;SDS011;56610;48.872;2.400;2022-12-22T03:40:10;15.70;;;6.40;;
69417;SDS011;56610;48.872;2.400;2022-12-22T03:42:35;15.57;;;5.85;;
69417;SDS011;56610;48.872;2.400;2022-12-22T03:45:20;12.75;;;4.28;;
69417;SDS011;56610;48.872;2.400;2022-12-22T03:48:04;12.70;;;3.72;;
69417;SDS011;56610;48.872;2.400;2022-12-22T03:50:29;13.07;;;3.65;;
69417;SDS011;56610;48.872;2.400;2022-12-22T03:52:55;11.70;;;3.25;;
69417;SDS011;56610;48.872;2.400;2022-12-22T03:55:21;14.68;;;3.35;;
69417;SDS011;56610;48.872;2.400;2022-12-22T03:57:46;10.45;;;2.88;;
69417;SDS011;56610;48.872;2.400;2022-12-22T04:00:12;10.50;;;2.65;;
69417;SDS011;56610;48.872;2.400;2022-12-22T04:02:38;10.85;;;2.72;;
69417;SDS011;56610;48.872;2.400;2022-12-22T04:05:04;10.00;;;2.72;;
69417;SDS011;56610;48.872;2.400;2022-12-22T04:07:29;12.20;;;3.22;;
69417;SDS011;56610;48.872;2.400;2022-12-22T04:09:55;10.55;;;2.95;;
69417;SDS011;56610;48.872;2.400;2022-12-22T04:12:39;9.18;;;3.28;;
69417;SDS011;56610;48.872;2.400;2022-12-22T04:15:20;11.00;;;3.13;;
69417;SDS011;56610;48.872;2.400;2022-12-22T04:17:47;10.02;;;2.75;;
69417;SDS011;56610;48.872;2.400;2022-12-22T04:20:13;11.43;;;3.50;;
69417;SDS011;56610;48.872;2.400;2022-12-22T04:22:38;9.80;;;2.58;;
69417;SDS011;56610;48.872;2.400;2022-12-22T04:25:04;12.80;;;4.22;;
69417;SDS011;56610;48.872;2.400;2022-12-22T04:27:30;10.43;;;3.85;;
69417;SDS011;56610;48.872;2.400;2022-12-22T04:29:56;11.18;;;2.88;;
69417;SDS011;56610;48.872;2.400;2022-12-22T04:32:21;8.05;;;2.60;;
69417;SDS011;56610;48.872;2.400;2022-12-22T04:34:47;8.38;;;2.70;;
69417;SDS011;56610;48.872;2.400;2022-12-22T04:37:12;6.97;;;2.03;;
69417;SDS011;56610;48.872;2.400;2022-12-22T04:39:38;9.63;;;2.60;;
69417;SDS011;56610;48.872;2.400;2022-12-22T04:42:03;6.35;;;1.88;;
69417;SDS011;56610;48.872;2.400;2022-12-22T04:44:29;7.93;;;2.13;;
69417;SDS011;56610;48.872;2.400;2022-12-22T04:46:55;7.47;;;2.03;;
69417;SDS011;56610;48.872;2.400;2022-12-22T04:49:20;6.93;;;1.80;;
69417;SDS011;56610;48.872;2.400;2022-12-22T04:51:46;8.60;;;2.15;;
69417;SDS011;56610;48.872;2.400;2022-12-22T04:54:11;8.40;;;2.15;;
69417;SDS011;56610;48.872;2.400;2022-12-22T04:56:37;8.95;;;2.03;;
69417;SDS011;56610;48.872;2.400;2022-12-22T04:59:02;5.95;;;1.77;;
69417;SDS011;56610;48.872;2.400;2022-12-22T05:01:28;6.30;;;1.58;;
69417;SDS011;56610;48.872;2.400;2022-12-22T05:03:53;6.78;;;1.98;;
69417;SDS011;56610;48.872;2.400;2022-12-22T05:06:19;5.03;;;1.80;;
69417;SDS011;56610;48.872;2.400;2022-12-22T05:08:45;3.92;;;1.27;;
69417;SDS011;56610;48.872;2.400;2022-12-22T05:11:10;5.13;;;1.75;;
69417;SDS011;56610;48.872;2.400;2022-12-22T05:13:36;4.78;;;1.33;;
69417;SDS011;56610;48.872;2.400;2022-12-22T05:16:06;5.50;;;1.40;;
69417;SDS011;56610;48.872;2.400;2022-12-22T05:18:34;5.28;;;1.42;;
69417;SDS011;56610;48.872;2.400;2022-12-22T05:21:10;4.82;;;1.40;;
69417;SDS011;56610;48.872;2.400;2022-12-22T05:23:41;5.28;;;1.40;;
69417;SDS011;56610;48.872;2.400;2022-12-22T05:26:07;3.15;;;1.30;;
69417;SDS011;56610;48.872;2.400;2022-12-22T05:28:33;3.50;;;1.08;;
69417;SDS011;56610;48.872;2.400;2022-12-22T05:31:03;3.78;;;1.40;;
69417;SDS011;56610;48.872;2.400;2022-12-22T05:33:30;4.50;;;1.17;;
69417;SDS011;56610;48.872;2.400;2022-12-22T05:35:55;3.72;;;1.00;;
69417;SDS011;56610;48.872;2.400;2022-12-22T05:38:21;3.10;;;1.00;;
69417;SDS011;56610;48.872;2.400;2022-12-22T05:40:47;2.72;;;0.80;;
69417;SDS011;56610;48.872;2.400;2022-12-22T05:43:12;3.60;;;1.23;;
69417;SDS011;56610;48.872;2.400;2022-12-22T05:45:38;2.80;;;1.00;;
69417;SDS011;56610;48.872;2.400;2022-12-22T05:48:04;2.58;;;0.80;;
69417;SDS011;56610;48.872;2.400;2022-12-22T05:50:30;2.60;;;0.70;;
69417;SDS011;56610;48.872;2.400;2022-12-22T05:52:56;2.00;;;0.70;;
69417;SDS011;56610;48.872;2.400;2022-12-22T05:55:22;2.25;;;0.80;;
69417;SDS011;56610;48.872;2.400;2022-12-22T05:57:47;1.75;;;0.70;;
69417;SDS011;56610;48.872;2.400;2022-12-22T06:00:13;2.60;;;0.80;;
69417;SDS011;56610;48.872;2.400;2022-12-22T06:02:40;1.63;;;0.50;;
69417;SDS011;56610;48.872;2.400;2022-12-22T06:05:07;2.65;;;0.63;;
69417;SDS011;56610;48.872;2.400;2022-12-22T06:07:34;2.25;;;0.63;;
69417;SDS011;56610;48.872;2.400;2022-12-22T06:10:00;3.15;;;1.20;;
69417;SDS011;56610;48.872;2.400;2022-12-22T06:12:25;4.18;;;0.90;;
69417;SDS011;56610;48.872;2.400;2022-12-22T06:14:51;3.35;;;0.90;;
69417;SDS011;56610;48.872;2.400;2022-12-22T06:17:16;1.75;;;0.68;;
69417;SDS011;56610;48.872;2.400;2022-12-22T06:19:42;3.22;;;0.60;;
69417;SDS011;56610;48.872;2.400;2022-12-22T06:22:08;2.60;;;0.80;;
69417;SDS011;56610;48.872;2.400;2022-12-22T06:24:33;2.38;;;1.05;;
69417;SDS011;56610;48.872;2.400;2022-12-22T06:26:59;2.30;;;0.90;;
69417;SDS011;56610;48.872;2.400;2022-12-22T06:29:25;3.00;;;0.70;;
69417;SDS011;56610;48.872;2.400;2022-12-22T06:31:54;1.45;;;0.50;;
69417;SDS011;56610;48.872;2.400;2022-12-22T06:34:19;2.30;;;0.80;;
69417;SDS011;56610;48.872;2.400;2022-12-22T06:36:46;1.65;;;0.57;;
69417;SDS011;56610;48.872;2.400;2022-12-22T06:39:12;1.13;;;0.50;;
69417;SDS011;56610;48.872;2.400;2022-12-22T06:41:39;1.77;;;0.70;;
69417;SDS011;56610;48.872;2.400;2022-12-22T06:44:24;2.03;;;0.60;;
69417;SDS011;56610;48.872;2.400;2022-12-22T06:46:50;1.67;;;0.60;;
69417;SDS011;56610;48.872;2.400;2022-12-22T06:49:16;2.20;;;1.05;;
69417;SDS011;56610;48.872;2.400;2022-12-22T06:51:42;2.47;;;0.85;;
69417;SDS011;56610;48.872;2.400;2022-12-22T06:54:07;2.17;;;0.77;;
69417;SDS011;56610;48.872;2.400;2022-12-22T06:56:33;3.95;;;1.00;;
69417;SDS011;56610;48.872;2.400;2022-12-22T06:58:58;3.60;;;1.15;;
69417;SDS011;56610;48.872;2.400;2022-12-22T07:01:24;4.05;;;1.17;;
69417;SDS011;56610;48.872;2.400;2022-12-22T07:03:50;4.60;;;1.23;;
69417;SDS011;56610;48.872;2.400;2022-12-22T07:06:15;8.68;;;1.95;;
69417;SDS011;56610;48.872;2.400;2022-12-22T07:08:44;8.10;;;2.17;;
69417;SDS011;56610;48.872;2.400;2022-12-22T07:11:10;11.70;;;2.83;;
69417;SDS011;56610;48.872;2.400;2022-12-22T07:13:36;8.52;;;2.60;;
69417;SDS011;56610;48.872;2.400;2022-12-22T07:16:03;12.43;;;3.10;;
69417;SDS011;56610;48.872;2.400;2022-12-22T07:18:34;12.60;;;3.28;;
69417;SDS011;56610;48.872;2.400;2022-12-22T07:21:02;12.63;;;2.95;;
69417;SDS011;56610;48.872;2.400;2022-12-22T07:23:29;15.20;;;3.78;;
69417;SDS011;56610;48.872;2.400;2022-12-22T07:25:55;18.83;;;4.53;;
69417;SDS011;56610;48.872;2.400;2022-12-22T07:28:41;16.70;;;4.47;;
69417;SDS011;56610;48.872;2.400;2022-12-22T07:31:07;19.15;;;4.20;;
69417;SDS011;56610;48.872;2.400;2022-12-22T07:33:34;19.90;;;5.22;;
69417;SDS011;56610;48.872;2.400;2022-12-22T07:36:00;21.40;;;5.30;;
69417;SDS011;56610;48.872;2.400;2022-12-22T07:40:58;19.90;;;5.30;;
69417;SDS011;56610;48.872;2.400;2022-12-22T07:43:23;20.70;;;4.82;;
69417;SDS011;56610;48.872;2.400;2022-12-22T07:45:49;23.25;;;5.65;;
69417;SDS011;56610;48.872;2.400;2022-12-22T07:48:15;25.38;;;5.60;;
69417;SDS011;56610;48.872;2.400;2022-12-22T07:51:00;28.38;;;6.07;;
69417;SDS011;56610;48.872;2.400;2022-12-22T07:53:28;25.45;;;6.38;;
69417;SDS011;56610;48.872;2.400;2022-12-22T07:55:53;22.77;;;6.25;;
69417;SDS011;56610;48.872;2.400;2022-12-22T07:58:19;26.60;;;6.32;;
69417;SDS011;56610;48.872;2.400;2022-12-22T08:00:45;23.33;;;6.28;;
69417;SDS011;56610;48.872;2.400;2022-12-22T08:03:11;27.02;;;7.22;;
69417;SDS011;56610;48.872;2.400;2022-12-22T08:05:36;30.58;;;7.00;;
69417;SDS011;56610;48.872;2.400;2022-12-22T08:08:02;32.80;;;7.40;;
69417;SDS011;56610;48.872;2.400;2022-12-22T08:10:28;29.33;;;7.13;;
69417;SDS011;56610;48.872;2.400;2022-12-22T08:12:53;29.67;;;7.38;;
69417;SDS011;56610;48.872;2.400;2022-12-22T08:15:19;28.73;;;7.55;;
69417;SDS011;56610;48.872;2.400;2022-12-22T08:17:45;35.67;;;7.95;;
69417;SDS011;56610;48.872;2.400;2022-12-22T08:20:10;30.77;;;7.38;;
69417;SDS011;56610;48.872;2.400;2022-12-22T08:22:36;28.98;;;6.80;;
69417;SDS011;56610;48.872;2.400;2022-12-22T08:25:01;34.72;;;8.20;;
69417;SDS011;56610;48.872;2.400;2022-12-22T08:30:06;32.10;;;7.55;;
69417;SDS011;56610;48.872;2.400;2022-12-22T08:32:33;33.33;;;7.93;;
69417;SDS011;56610;48.872;2.400;2022-12-22T08:35:00;32.83;;;8.23;;
69417;SDS011;56610;48.872;2.400;2022-12-22T08:37:26;33.67;;;7.68;;
69417;SDS011;56610;48.872;2.400;2022-12-22T08:39:57;32.20;;;7.88;;
69417;SDS011;56610;48.872;2.400;2022-12-22T08:42:26;36.92;;;8.30;;
69417;SDS011;56610;48.872;2.400;2022-12-22T08:44:52;38.42;;;7.78;;
69417;SDS011;56610;48.872;2.400;2022-12-22T08:47:18;35.20;;;8.85;;
69417;SDS011;56610;48.872;2.400;2022-12-22T08:49:44;27.55;;;8.48;;
69417;SDS011;56610;48.872;2.400;2022-12-22T08:52:10;36.63;;;8.27;;
69417;SDS011;56610;48.872;2.400;2022-12-22T08:54:36;32.03;;;8.32;;
69417;SDS011;56610;48.872;2.400;2022-12-22T08:57:01;28.40;;;6.97;;
69417;SDS011;56610;48.872;2.400;2022-12-22T08:59:27;33.47;;;8.35;;
69417;SDS011;56610;48.872;2.400;2022-12-22T09:01:53;34.25;;;8.23;;
69417;SDS011;56610;48.872;2.400;2022-12-22T09:04:19;29.10;;;7.53;;
69417;SDS011;56610;48.872;2.400;2022-12-22T09:06:45;33.28;;;8.13;;
69417;SDS011;56610;48.872;2.400;2022-12-22T09:09:11;35.65;;;8.40;;
69417;SDS011;56610;48.872;2.400;2022-12-22T09:11:38;34.88;;;8.85;;
69417;SDS011;56610;48.872;2.400;2022-12-22T09:14:06;38.00;;;7.90;;
69417;SDS011;56610;48.872;2.400;2022-12-22T09:16:32;40.55;;;8.60;;
69417;SDS011;56610;48.872;2.400;2022-12-22T09:18:59;37.92;;;8.20;;
69417;SDS011;56610;48.872;2.400;2022-12-22T09:21:25;34.20;;;8.05;;
69417;SDS011;56610;48.872;2.400;2022-12-22T09:23:52;37.30;;;8.43;;
69417;SDS011;56610;48.872;2.400;2022-12-22T09:26:20;34.03;;;9.55;;
69417;SDS011;56610;48.872;2.400;2022-12-22T09:28:46;36.92;;;8.13;;
69417;SDS011;56610;48.872;2.400;2022-12-22T09:31:12;33.22;;;9.20;;
69417;SDS011;56610;48.872;2.400;2022-12-22T09:33:38;37.80;;;8.60;;
69417;SDS011;56610;48.872;2.400;2022-12-22T09:36:08;30.05;;;8.35;;
69417;SDS011;56610;48.872;2.400;2022-12-22T09:38:36;37.95;;;9.45;;
69417;SDS011;56610;48.872;2.400;2022-12-22T09:43:53;30.23;;;7.90;;
69417;SDS011;56610;48.872;2.400;2022-12-22T09:46:25;39.20;;;8.68;;
69417;SDS011;56610;48.872;2.400;2022-12-22T09:48:53;40.63;;;8.90;;
69417;SDS011;56610;48.872;2.400;2022-12-22T09:51:20;37.40;;;9.18;;
69417;SDS011;56610;48.872;2.400;2022-12-22T09:53:47;35.15;;;8.63;;
69417;SDS011;56610;48.872;2.400;2022-12-22T09:56:18;38.13;;;9.77;;
69417;SDS011;56610;48.872;2.400;2022-12-22T09:58:44;39.22;;;9.38;;
69417;SDS011;56610;48.872;2.400;2022-12-22T10:08:42;32.72;;;9.32;;
69417;SDS011;56610;48.872;2.400;2022-12-22T10:11:14;36.55;;;9.50;;
69417;SDS011;56610;48.872;2.400;2022-12-22T10:13:41;36.97;;;9.25;;
69417;SDS011;56610;48.872;2.400;2022-12-22T10:19:05;37.03;;;8.93;;
69417;SDS011;56610;48.872;2.400;2022-12-22T10:21:33;34.50;;;8.93;;
69417;SDS011;56610;48.872;2.400;2022-12-22T10:23:58;33.50;;;8.45;;
69417;SDS011;56610;48.872;2.400;2022-12-22T10:26:25;40.70;;;10.38;;
69417;SDS011;56610;48.872;2.400;2022-12-22T10:28:58;34.72;;;8.55;;
69417;SDS011;56610;48.872;2.400;2022-12-22T10:31:30;37.22;;;7.95;;
69417;SDS011;56610;48.872;2.400;2022-12-22T10:34:14;31.33;;;8.40;;
69417;SDS011;56610;48.872;2.400;2022-12-22T10:36:51;37.67;;;8.32;;
69417;SDS011;56610;48.872;2.400;2022-12-22T10:39:31;33.60;;;7.90;;
69417;SDS011;56610;48.872;2.400;2022-12-22T10:44:30;36.42;;;8.75;;
69417;SDS011;56610;48.872;2.400;2022-12-22T10:47:18;39.88;;;9.45;;
69417;SDS011;56610;48.872;2.400;2022-12-22T10:49:51;37.28;;;9.07;;
69417;SDS011;56610;48.872;2.400;2022-12-22T10:54:49;37.88;;;8.30;;
69417;SDS011;56610;48.872;2.400;2022-12-22T10:59:53;30.80;;;8.00;;
69417;SDS011;56610;48.872;2.400;2022-12-22T11:02:23;38.50;;;9.02;;
69417;SDS011;56610;48.872;2.400;2022-12-22T11:04:50;36.58;;;8.85;;
69417;SDS011;56610;48.872;2.400;2022-12-22T11:07:17;28.70;;;7.30;;
69417;SDS011;56610;48.872;2.400;2022-12-22T11:09:43;38.17;;;8.25;;
69417;SDS011;56610;48.872;2.400;2022-12-22T11:12:13;39.30;;;9.50;;
69417;SDS011;56610;48.872;2.400;2022-12-22T11:20:37;35.60;;;8.73;;
69417;SDS011;56610;48.872;2.400;2022-12-22T11:23:23;30.83;;;8.57;;
69417;SDS011;56610;48.872;2.400;2022-12-22T11:31:13;40.40;;;9.98;;
69417;SDS011;56610;48.872;2.400;2022-12-22T11:39:05;30.05;;;8.20;;
69417;SDS011;56610;48.872;2.400;2022-12-22T11:47:12;36.20;;;8.10;;
69417;SDS011;56610;48.872;2.400;2022-12-22T11:52:52;30.63;;;7.78;;
69417;SDS011;56610;48.872;2.400;2022-12-22T11:55:24;32.65;;;8.73;;
69417;SDS011;56610;48.872;2.400;2022-12-22T12:00:57;28.38;;;7.97;;
69417;SDS011;56610;48.872;2.400;2022-12-22T12:06:25;36.58;;;8.68;;
69417;SDS011;56610;48.872;2.400;2022-12-22T12:11:57;31.45;;;7.65;;
69417;SDS011;56610;48.872;2.400;2022-12-22T12:17:58;35.40;;;8.25;;
69417;SDS011;56610;48.872;2.400;2022-12-22T12:24:02;37.13;;;8.68;;
69417;SDS011;56610;48.872;2.400;2022-12-22T12:29:47;35.65;;;8.52;;
69417;SDS011;56610;48.872;2.400;2022-12-22T12:32:37;30.63;;;7.68;;
69417;SDS011;56610;48.872;2.400;2022-12-22T12:35:16;37.03;;;8.45;;
69417;SDS011;56610;48.872;2.400;2022-12-22T12:38:16;34.70;;;8.80;;
69417;SDS011;56610;48.872;2.400;2022-12-22T12:40:50;33.85;;;8.43;;
69417;SDS011;56610;48.872;2.400;2022-12-22T12:43:40;34.30;;;8.68;;
69417;SDS011;56610;48.872;2.400;2022-12-22T12:52:14;32.40;;;8.30;;
69417;SDS011;56610;48.872;2.400;2022-12-22T12:54:46;36.42;;;7.97;;
69417;SDS011;56610;48.872;2.400;2022-12-22T12:59:55;38.88;;;9.40;;
69417;SDS011;56610;48.872;2.400;2022-12-22T13:02:37;38.63;;;8.80;;
69417;SDS011;56610;48.872;2.400;2022-12-22T13:10:17;30.58;;;7.18;;
69417;SDS011;56610;48.872;2.400;2022-12-22T13:12:50;31.67;;;7.30;;
69417;SDS011;56610;48.872;2.400;2022-12-22T13:17:51;33.10;;;8.18;;
69417;SDS011;56610;48.872;2.400;2022-12-22T13:20:19;36.08;;;8.57;;
69417;SDS011;56610;48.872;2.400;2022-12-22T13:23:09;32.28;;;7.60;;
69417;SDS011;56610;48.872;2.400;2022-12-22T13:25:39;31.08;;;7.68;;
69417;SDS011;56610;48.872;2.400;2022-12-22T13:28:16;38.42;;;8.10;;
69417;SDS011;56610;48.872;2.400;2022-12-22T13:30:57;31.20;;;8.07;;
69417;SDS011;56610;48.872;2.400;2022-12-22T13:33:26;27.90;;;7.53;;
69417;SDS011;56610;48.872;2.400;2022-12-22T13:35:54;31.15;;;7.32;;
69417;SDS011;56610;48.872;2.400;2022-12-22T13:38:31;35.95;;;7.90;;
69417;SDS011;56610;48.872;2.400;2022-12-22T13:40:59;34.13;;;8.52;;
69417;SDS011;56610;48.872;2.400;2022-12-22T13:43:46;36.33;;;8.45;;
69417;SDS011;56610;48.872;2.400;2022-12-22T13:46:18;35.38;;;8.98;;
69417;SDS011;56610;48.872;2.400;2022-12-22T13:48:47;32.50;;;7.75;;
69417;SDS011;56610;48.872;2.400;2022-12-22T13:53:55;34.40;;;8.25;;
69417;SDS011;56610;48.872;2.400;2022-12-22T13:56:33;38.15;;;8.55;;
69417;SDS011;56610;48.872;2.400;2022-12-22T13:59:02;32.63;;;7.85;;
69417;SDS011;56610;48.872;2.400;2022-12-22T14:01:28;37.92;;;7.57;;
69417;SDS011;56610;48.872;2.400;2022-12-22T14:03:57;36.17;;;8.77;;
69417;SDS011;56610;48.872;2.400;2022-12-22T14:06:28;32.42;;;8.18;;
69417;SDS011;56610;48.872;2.400;2022-12-22T14:09:12;32.85;;;8.02;;
69417;SDS011;56610;48.872;2.400;2022-12-22T14:14:20;28.13;;;7.72;;
69417;SDS011;56610;48.872;2.400;2022-12-22T14:16:53;29.88;;;7.20;;
69417;SDS011;56610;48.872;2.400;2022-12-22T14:19:21;31.85;;;8.02;;
69417;SDS011;56610;48.872;2.400;2022-12-22T14:21:51;28.50;;;7.78;;
69417;SDS011;56610;48.872;2.400;2022-12-22T14:24:33;29.42;;;7.18;;
69417;SDS011;56610;48.872;2.400;2022-12-22T14:27:05;31.15;;;7.35;;
69417;SDS011;56610;48.872;2.400;2022-12-22T14:29:37;30.02;;;7.43;;
69417;SDS011;56610;48.872;2.400;2022-12-22T14:32:03;33.88;;;7.45;;
69417;SDS011;56610;48.872;2.400;2022-12-22T14:34:30;30.13;;;7.40;;
69417;SDS011;56610;48.872;2.400;2022-12-22T14:36:58;26.25;;;7.03;;
69417;SDS011;56610;48.872;2.400;2022-12-22T14:39:28;25.27;;;6.25;;
69417;SDS011;56610;48.872;2.400;2022-12-22T14:41:57;23.60;;;6.57;;
69417;SDS011;56610;48.872;2.400;2022-12-22T14:44:28;27.92;;;6.68;;
69417;SDS011;56610;48.872;2.400;2022-12-22T14:47:04;27.10;;;7.10;;
69417;SDS011;56610;48.872;2.400;2022-12-22T14:52:29;24.30;;;6.22;;
69417;SDS011;56610;48.872;2.400;2022-12-22T14:55:20;18.38;;;5.72;;
69417;SDS011;56610;48.872;2.400;2022-12-22T15:00:36;25.23;;;6.38;;
69417;SDS011;56610;48.872;2.400;2022-12-22T15:06:35;22.65;;;6.88;;
69417;SDS011;56610;48.872;2.400;2022-12-22T15:11:30;23.92;;;6.88;;
69417;SDS011;56610;48.872;2.400;2022-12-22T15:13:57;21.75;;;6.32;;
69417;SDS011;56610;48.872;2.400;2022-12-22T15:16:22;23.55;;;6.82;;
69417;SDS011;56610;48.872;2.400;2022-12-22T15:18:49;27.23;;;8.00;;
69417;SDS011;56610;48.872;2.400;2022-12-22T15:21:17;20.65;;;6.72;;
69417;SDS011;56610;48.872;2.400;2022-12-22T15:23:43;16.27;;;5.28;;
69417;SDS011;56610;48.872;2.400;2022-12-22T15:26:09;22.42;;;6.38;;
69417;SDS011;56610;48.872;2.400;2022-12-22T15:28:35;18.73;;;6.00;;
69417;SDS011;56610;48.872;2.400;2022-12-22T15:31:01;21.95;;;6.57;;
69417;SDS011;56610;48.872;2.400;2022-12-22T15:33:28;18.27;;;5.43;;
69417;SDS011;56610;48.872;2.400;2022-12-22T15:35:54;16.98;;;5.65;;
69417;SDS011;56610;48.872;2.400;2022-12-22T15:38:21;19.05;;;6.00;;
69417;SDS011;56610;48.872;2.400;2022-12-22T15:40:48;20.92;;;6.72;;
69417;SDS011;56610;48.872;2.400;2022-12-22T15:43:14;19.65;;;5.53;;
69417;SDS011;56610;48.872;2.400;2022-12-22T15:45:40;20.75;;;5.90;;
69417;SDS011;56610;48.872;2.400;2022-12-22T15:48:09;19.58;;;5.55;;
69417;SDS011;56610;48.872;2.400;2022-12-22T15:50:40;16.90;;;5.47;;
69417;SDS011;56610;48.872;2.400;2022-12-22T15:53:08;24.83;;;6.43;;
69417;SDS011;56610;48.872;2.400;2022-12-22T15:55:49;18.25;;;5.78;;
69417;SDS011;56610;48.872;2.400;2022-12-22T15:58:19;18.80;;;6.45;;
69417;SDS011;56610;48.872;2.400;2022-12-22T16:00:46;19.08;;;5.78;;
69417;SDS011;56610;48.872;2.400;2022-12-22T16:03:12;18.80;;;6.35;;
69417;SDS011;56610;48.872;2.400;2022-12-22T16:05:38;17.05;;;5.47;;
69417;SDS011;56610;48.872;2.400;2022-12-22T16:11:07;17.38;;;5.70;;
69417;SDS011;56610;48.872;2.400;2022-12-22T16:13:33;17.90;;;5.65;;
69417;SDS011;56610;48.872;2.400;2022-12-22T16:16:00;15.27;;;5.37;;
69417;SDS011;56610;48.872;2.400;2022-12-22T16:18:25;16.63;;;5.35;;
69417;SDS011;56610;48.872;2.400;2022-12-22T16:20:51;16.35;;;5.50;;
69417;SDS011;56610;48.872;2.400;2022-12-22T16:23:19;17.10;;;5.80;;
69417;SDS011;56610;48.872;2.400;2022-12-22T16:25:48;16.17;;;5.78;;
69417;SDS011;56610;48.872;2.400;2022-12-22T16:28:16;14.07;;;5.53;;
69417;SDS011;56610;48.872;2.400;2022-12-22T16:30:44;15.18;;;5.63;;
69417;SDS011;56610;48.872;2.400;2022-12-22T16:33:11;13.85;;;5.68;;
69417;SDS011;56610;48.872;2.400;2022-12-22T16:35:37;12.68;;;4.90;;
69417;SDS011;56610;48.872;2.400;2022-12-22T16:38:03;13.50;;;5.30;;
69417;SDS011;56610;48.872;2.400;2022-12-22T16:40:29;13.55;;;4.45;;
69417;SDS011;56610;48.872;2.400;2022-12-22T16:45:59;10.95;;;4.15;;
69417;SDS011;56610;48.872;2.400;2022-12-22T16:48:28;9.35;;;3.70;;
69417;SDS011;56610;48.872;2.400;2022-12-22T16:50:57;10.13;;;3.88;;
69417;SDS011;56610;48.872;2.400;2022-12-22T16:53:23;11.07;;;3.90;;
69417;SDS011;56610;48.872;2.400;2022-12-22T16:55:49;7.47;;;3.58;;
69417;SDS011;56610;48.872;2.400;2022-12-22T16:58:17;7.78;;;3.33;;
69417;SDS011;56610;48.872;2.400;2022-12-22T17:00:43;8.38;;;3.47;;
69417;SDS011;56610;48.872;2.400;2022-12-22T17:03:11;9.00;;;2.97;;
69417;SDS011;56610;48.872;2.400;2022-12-22T17:05:49;8.00;;;3.00;;
69417;SDS011;56610;48.872;2.400;2022-12-22T17:08:24;5.70;;;2.60;;
69417;SDS011;56610;48.872;2.400;2022-12-22T17:10:54;6.65;;;2.40;;
69417;SDS011;56610;48.872;2.400;2022-12-22T17:15:47;4.50;;;2.20;;
69417;SDS011;56610;48.872;2.400;2022-12-22T17:18:14;2.95;;;1.80;;
69417;SDS011;56610;48.872;2.400;2022-12-22T17:20:41;5.32;;;2.20;;